sensor_id;sensor_type;location;lat;lon;timestamp;pressure;altitude;pressure_sealevel;temperature;humidity
41102;BME280;26845;50.190;19.178;2023-06-22T00:02:37;98825.27;;;20.91;79.78
41102;BME280;26845;50.190;19.178;2023-06-22T00:05:43;98825.05;;;20.85;79.56
41102;BME280;26845;50.190;19.178;2023-06-22T00:08:49;98829.27;;;20.74;79.57
41102;BME280;26845;50.190;19.178;2023-06-22T00:11:55;98836.36;;;20.61;79.64
41102;BME280;26845;50.190;19.178;2023-06-22T00:15:01;98836.00;;;20.58;80.22
41102;BME280;26845;50.190;19.178;2023-06-22T00:18:07;98833.67;;;20.60;80.40
41102;BME280;26845;50.190;19.178;2023-06-22T00:21:13;98835.02;;;20.56;80.32
41102;BME280;26845;50.190;19.178;2023-06-22T00:24:19;98832.15;;;20.50;80.09
41102;BME280;26845;50.190;19.178;2023-06-22T00:26:52;98832.54;;;20.37;80.23
41102;BME280;26845;50.190;19.178;2023-06-22T00:29:26;98837.34;;;20.29;80.56
41102;BME280;26845;50.190;19.178;2023-06-22T00:32:34;98843.58;;;20.26;80.66
41102;BME280;26845;50.190;19.178;2023-06-22T00:35:40;98853.48;;;20.25;80.71
41102;BME280;26845;50.190;19.178;2023-06-22T00:38:42;98856.30;;;20.24;80.75
41102;BME280;26845;50.190;19.178;2023-06-22T00:41:16;98854.92;;;20.18;80.78
41102;BME280;26845;50.190;19.178;2023-06-22T00:43:49;98854.19;;;20.13;80.89
41102;BME280;26845;50.190;19.178;2023-06-22T00:46:23;98850.84;;;20.10;81.05
41102;BME280;26845;50.190;19.178;2023-06-22T00:48:57;98846.33;;;20.15;81.23
41102;BME280;26845;50.190;19.178;2023-06-22T00:51:31;98850.05;;;20.16;81.20
41102;BME280;26845;50.190;19.178;2023-06-22T00:54:04;98844.52;;;20.13;81.14
41102;BME280;26845;50.190;19.178;2023-06-22T00:56:38;98841.67;;;20.12;81.27
41102;BME280;26845;50.190;19.178;2023-06-22T00:59:11;98843.58;;;20.14;81.32
41102;BME280;26845;50.190;19.178;2023-06-22T01:01:45;98843.23;;;20.19;81.44
41102;BME280;26845;50.190;19.178;2023-06-22T01:04:19;98835.98;;;20.18;81.50
41102;BME280;26845;50.190;19.178;2023-06-22T01:06:54;98828.64;;;20.18;81.45
41102;BME280;26845;50.190;19.178;2023-06-22T01:09:27;98823.87;;;20.16;81.45
41102;BME280;26845;50.190;19.178;2023-06-22T01:12:01;98824.11;;;20.12;81.39
41102;BME280;26845;50.190;19.178;2023-06-22T01:14:38;98825.21;;;20.05;81.53
41102;BME280;26845;50.190;19.178;2023-06-22T01:17:17;98825.61;;;19.99;81.66
41102;BME280;26845;50.190;19.178;2023-06-22T01:19:57;98823.89;;;19.97;81.77
41102;BME280;26845;50.190;19.178;2023-06-22T01:23:07;98824.67;;;19.95;81.73
41102;BME280;26845;50.190;19.178;2023-06-22T01:26:53;98832.27;;;19.97;81.91
41102;BME280;26845;50.190;19.178;2023-06-22T01:29:18;98827.52;;;20.03;81.99
41102;BME280;26845;50.190;19.178;2023-06-22T01:32:23;98825.78;;;20.10;82.32
41102;BME280;26845;50.190;19.178;2023-06-22T01:35:31;98829.17;;;20.16;82.20
41102;BME280;26845;50.190;19.178;2023-06-22T01:38:37;98834.20;;;20.18;82.27
41102;BME280;26845;50.190;19.178;2023-06-22T01:41:50;98831.26;;;20.21;82.00
41102;BME280;26845;50.190;19.178;2023-06-22T01:45:12;98835.33;;;20.18;81.98
41102;BME280;26845;50.190;19.178;2023-06-22T01:48:18;98845.98;;;20.14;82.04
41102;BME280;26845;50.190;19.178;2023-06-22T01:50:52;98839.88;;;20.10;81.97
41102;BME280;26845;50.190;19.178;2023-06-22T01:53:25;98846.92;;;20.06;81.96
41102;BME280;26845;50.190;19.178;2023-06-22T01:55:59;98844.65;;;20.05;82.07
41102;BME280;26845;50.190;19.178;2023-06-22T01:58:33;98841.76;;;20.07;82.17
41102;BME280;26845;50.190;19.178;2023-06-22T02:01:10;98848.27;;;20.11;82.26
41102;BME280;26845;50.190;19.178;2023-06-22T02:06:17;98845.02;;;20.15;82.20
41102;BME280;26845;50.190;19.178;2023-06-22T02:08:48;98846.35;;;20.17;82.09
41102;BME280;26845;50.190;19.178;2023-06-22T02:11:21;98855.90;;;20.14;81.54
41102;BME280;26845;50.190;19.178;2023-06-22T02:13:55;98857.70;;;20.05;81.51
41102;BME280;26845;50.190;19.178;2023-06-22T02:16:29;98856.11;;;19.96;81.85
41102;BME280;26845;50.190;19.178;2023-06-22T02:19:02;98854.09;;;19.91;82.13
41102;BME280;26845;50.190;19.178;2023-06-22T02:22:23;98860.95;;;19.87;81.85
41102;BME280;26845;50.190;19.178;2023-06-22T02:25:28;98864.41;;;19.82;81.97
41102;BME280;26845;50.190;19.178;2023-06-22T02:28:34;98858.83;;;19.75;82.01
41102;BME280;26845;50.190;19.178;2023-06-22T02:31:43;98855.42;;;19.74;82.50
41102;BME280;26845;50.190;19.178;2023-06-22T02:34:49;98854.61;;;19.69;82.38
41102;BME280;26845;50.190;19.178;2023-06-22T02:37:55;98862.95;;;19.59;82.53
41102;BME280;26845;50.190;19.178;2023-06-22T02:41:07;98864.50;;;19.47;82.78
41102;BME280;26845;50.190;19.178;2023-06-22T02:44:14;98863.94;;;19.30;82.85
41102;BME280;26845;50.190;19.178;2023-06-22T02:47:20;98860.02;;;19.26;83.10
41102;BME280;26845;50.190;19.178;2023-06-22T02:50:26;98856.48;;;19.22;83.36
41102;BME280;26845;50.190;19.178;2023-06-22T02:53:50;98856.37;;;19.21;83.58
41102;BME280;26845;50.190;19.178;2023-06-22T02:57:07;98864.39;;;19.11;83.74
41102;BME280;26845;50.190;19.178;2023-06-22T03:00:13;98868.42;;;19.03;84.10
41102;BME280;26845;50.190;19.178;2023-06-22T03:03:25;98873.73;;;18.96;84.42
41102;BME280;26845;50.190;19.178;2023-06-22T03:06:31;98887.40;;;18.87;84.89
41102;BME280;26845;50.190;19.178;2023-06-22T03:09:37;98888.66;;;18.81;85.29
41102;BME280;26845;50.190;19.178;2023-06-22T03:12:51;98899.36;;;18.75;85.66
41102;BME280;26845;50.190;19.178;2023-06-22T03:15:54;98901.66;;;18.71;86.02
41102;BME280;26845;50.190;19.178;2023-06-22T03:19:09;98904.63;;;18.70;86.06
41102;BME280;26845;50.190;19.178;2023-06-22T03:22:15;98906.09;;;18.71;86.87
41102;BME280;26845;50.190;19.178;2023-06-22T03:25:24;98905.16;;;18.69;87.07
41102;BME280;26845;50.190;19.178;2023-06-22T03:28:33;98907.30;;;18.67;87.01
41102;BME280;26845;50.190;19.178;2023-06-22T03:31:38;98909.21;;;18.66;87.44
41102;BME280;26845;50.190;19.178;2023-06-22T03:34:44;98909.02;;;18.69;87.31
41102;BME280;26845;50.190;19.178;2023-06-22T03:37:18;98906.46;;;18.73;88.11
41102;BME280;26845;50.190;19.178;2023-06-22T03:39:52;98908.15;;;18.73;88.02
41102;BME280;26845;50.190;19.178;2023-06-22T03:42:25;98910.23;;;18.73;87.77
41102;BME280;26845;50.190;19.178;2023-06-22T03:44:59;98908.71;;;18.75;87.88
41102;BME280;26845;50.190;19.178;2023-06-22T03:47:33;98915.00;;;18.76;88.04
41102;BME280;26845;50.190;19.178;2023-06-22T03:50:06;98921.41;;;18.78;88.17
41102;BME280;26845;50.190;19.178;2023-06-22T03:52:40;98918.11;;;18.82;88.38
41102;BME280;26845;50.190;19.178;2023-06-22T03:55:14;98908.21;;;18.86;88.26
41102;BME280;26845;50.190;19.178;2023-06-22T03:57:48;98903.55;;;18.94;88.22
41102;BME280;26845;50.190;19.178;2023-06-22T04:00:21;98902.91;;;19.06;88.17
41102;BME280;26845;50.190;19.178;2023-06-22T04:03:01;98900.44;;;19.19;88.25
41102;BME280;26845;50.190;19.178;2023-06-22T04:06:00;98907.63;;;19.24;87.95
41102;BME280;26845;50.190;19.178;2023-06-22T04:08:40;98916.31;;;19.27;87.90
41102;BME280;26845;50.190;19.178;2023-06-22T04:11:20;98916.27;;;19.34;88.11
41102;BME280;26845;50.190;19.178;2023-06-22T04:14:00;98919.56;;;19.41;87.89
41102;BME280;26845;50.190;19.178;2023-06-22T04:16:40;98919.02;;;19.43;87.96
41102;BME280;26845;50.190;19.178;2023-06-22T04:19:46;98920.00;;;19.48;88.00
41102;BME280;26845;50.190;19.178;2023-06-22T04:22:53;98915.14;;;19.55;87.98
41102;BME280;26845;50.190;19.178;2023-06-22T04:25:58;98920.63;;;19.67;88.16
41102;BME280;26845;50.190;19.178;2023-06-22T04:29:04;98924.43;;;19.81;88.14
41102;BME280;26845;50.190;19.178;2023-06-22T04:32:09;98926.91;;;19.99;88.19
41102;BME280;26845;50.190;19.178;2023-06-22T04:35:16;98921.19;;;20.18;88.09
41102;BME280;26845;50.190;19.178;2023-06-22T04:38:23;98919.15;;;20.33;87.80
41102;BME280;26845;50.190;19.178;2023-06-22T04:41:28;98922.21;;;20.37;87.53
41102;BME280;26845;50.190;19.178;2023-06-22T04:44:34;98919.73;;;20.43;87.48
41102;BME280;26845;50.190;19.178;2023-06-22T04:47:40;98921.68;;;20.50;87.70
41102;BME280;26845;50.190;19.178;2023-06-22T04:50:45;98926.05;;;20.55;87.68
41102;BME280;26845;50.190;19.178;2023-06-22T04:53:51;98935.84;;;20.62;87.66
41102;BME280;26845;50.190;19.178;2023-06-22T04:56:57;98935.60;;;20.68;87.52
41102;BME280;26845;50.190;19.178;2023-06-22T05:00:03;98935.00;;;20.77;87.61
41102;BME280;26845;50.190;19.178;2023-06-22T05:03:09;98937.90;;;20.83;87.55
41102;BME280;26845;50.190;19.178;2023-06-22T05:06:14;98942.61;;;20.90;87.49
41102;BME280;26845;50.190;19.178;2023-06-22T05:08:40;98942.30;;;21.03;87.51
41102;BME280;26845;50.190;19.178;2023-06-22T05:11:07;98946.80;;;21.13;87.74
41102;BME280;26845;50.190;19.178;2023-06-22T05:13:33;98947.05;;;21.23;87.70
41102;BME280;26845;50.190;19.178;2023-06-22T05:15:59;98949.20;;;21.32;87.75
41102;BME280;26845;50.190;19.178;2023-06-22T05:18:28;98952.66;;;21.43;87.97
41102;BME280;26845;50.190;19.178;2023-06-22T05:20:54;98955.45;;;21.59;88.09
41102;BME280;26845;50.190;19.178;2023-06-22T05:23:20;98957.77;;;21.80;88.26
41102;BME280;26845;50.190;19.178;2023-06-22T05:25:47;98952.52;;;21.99;88.19
41102;BME280;26845;50.190;19.178;2023-06-22T05:28:13;98955.45;;;22.16;87.64
41102;BME280;26845;50.190;19.178;2023-06-22T05:30:39;98961.76;;;22.33;87.22
41102;BME280;26845;50.190;19.178;2023-06-22T05:33:05;98962.33;;;22.45;87.08
41102;BME280;26845;50.190;19.178;2023-06-22T05:35:31;98969.98;;;22.61;87.40
41102;BME280;26845;50.190;19.178;2023-06-22T05:37:58;98962.39;;;22.77;87.17
41102;BME280;26845;50.190;19.178;2023-06-22T05:40:24;98959.48;;;22.91;87.13
41102;BME280;26845;50.190;19.178;2023-06-22T05:42:50;98956.34;;;23.05;86.69
41102;BME280;26845;50.190;19.178;2023-06-22T05:45:16;98958.29;;;23.21;86.55
41102;BME280;26845;50.190;19.178;2023-06-22T05:47:42;98956.63;;;23.29;85.95
41102;BME280;26845;50.190;19.178;2023-06-22T05:50:09;98960.61;;;23.32;85.67
41102;BME280;26845;50.190;19.178;2023-06-22T05:52:35;98963.05;;;23.35;85.78
41102;BME280;26845;50.190;19.178;2023-06-22T05:55:02;98961.37;;;23.41;85.60
41102;BME280;26845;50.190;19.178;2023-06-22T05:57:28;98958.02;;;23.56;86.05
41102;BME280;26845;50.190;19.178;2023-06-22T05:59:54;98956.21;;;23.71;85.71
41102;BME280;26845;50.190;19.178;2023-06-22T06:02:20;98959.08;;;23.81;85.25
41102;BME280;26845;50.190;19.178;2023-06-22T06:04:47;98964.63;;;23.93;85.32
41102;BME280;26845;50.190;19.178;2023-06-22T06:07:13;98966.49;;;24.05;84.97
41102;BME280;26845;50.190;19.178;2023-06-22T06:09:39;98973.98;;;24.17;85.08
41102;BME280;26845;50.190;19.178;2023-06-22T06:12:05;98968.78;;;24.26;84.65
41102;BME280;26845;50.190;19.178;2023-06-22T06:14:32;98977.95;;;24.24;84.20
41102;BME280;26845;50.190;19.178;2023-06-22T06:16:58;98979.02;;;24.30;84.03
41102;BME280;26845;50.190;19.178;2023-06-22T06:19:25;98978.77;;;24.33;83.56
41102;BME280;26845;50.190;19.178;2023-06-22T06:21:51;98977.14;;;24.37;83.28
41102;BME280;26845;50.190;19.178;2023-06-22T06:24:17;98975.85;;;24.40;83.21
41102;BME280;26845;50.190;19.178;2023-06-22T06:26:43;98976.66;;;24.39;82.88
41102;BME280;26845;50.190;19.178;2023-06-22T06:29:09;98978.12;;;24.39;83.05
41102;BME280;26845;50.190;19.178;2023-06-22T06:31:35;98977.81;;;24.60;83.58
41102;BME280;26845;50.190;19.178;2023-06-22T06:34:02;98980.94;;;24.89;83.78
41102;BME280;26845;50.190;19.178;2023-06-22T06:36:28;98984.38;;;25.17;83.11
41102;BME280;26845;50.190;19.178;2023-06-22T06:38:54;98986.69;;;25.36;82.70
41102;BME280;26845;50.190;19.178;2023-06-22T06:41:20;98988.35;;;25.47;81.78
41102;BME280;26845;50.190;19.178;2023-06-22T06:43:47;98989.86;;;25.50;81.35
41102;BME280;26845;50.190;19.178;2023-06-22T06:46:13;98992.16;;;25.48;81.09
41102;BME280;26845;50.190;19.178;2023-06-22T06:48:39;98991.92;;;25.46;80.60
41102;BME280;26845;50.190;19.178;2023-06-22T06:51:06;98988.36;;;25.45;80.50
41102;BME280;26845;50.190;19.178;2023-06-22T06:53:35;98987.07;;;25.40;79.94
41102;BME280;26845;50.190;19.178;2023-06-22T06:56:00;98983.91;;;25.36;79.71
41102;BME280;26845;50.190;19.178;2023-06-22T06:58:27;98980.65;;;25.38;80.12
41102;BME280;26845;50.190;19.178;2023-06-22T07:00:53;98977.95;;;25.44;79.77
41102;BME280;26845;50.190;19.178;2023-06-22T07:03:19;98971.55;;;25.39;78.85
41102;BME280;26845;50.190;19.178;2023-06-22T07:05:45;98973.71;;;25.27;78.72
41102;BME280;26845;50.190;19.178;2023-06-22T07:08:11;98974.49;;;25.36;79.44
41102;BME280;26845;50.190;19.178;2023-06-22T07:10:37;98973.60;;;25.58;79.36
41102;BME280;26845;50.190;19.178;2023-06-22T07:13:04;98969.16;;;25.66;78.41
41102;BME280;26845;50.190;19.178;2023-06-22T07:15:30;98971.88;;;25.73;79.09
41102;BME280;26845;50.190;19.178;2023-06-22T07:17:56;98974.91;;;25.84;78.66
41102;BME280;26845;50.190;19.178;2023-06-22T07:20:22;98975.70;;;26.04;78.68
41102;BME280;26845;50.190;19.178;2023-06-22T07:22:48;98980.10;;;26.24;78.60
41102;BME280;26845;50.190;19.178;2023-06-22T07:25:15;98978.64;;;26.35;77.17
41102;BME280;26845;50.190;19.178;2023-06-22T07:27:45;98979.27;;;26.27;77.28
41102;BME280;26845;50.190;19.178;2023-06-22T07:30:11;98978.49;;;26.42;77.29
41102;BME280;26845;50.190;19.178;2023-06-22T07:32:37;98977.60;;;26.56;76.75
41102;BME280;26845;50.190;19.178;2023-06-22T07:35:04;98982.96;;;26.56;76.71
41102;BME280;26845;50.190;19.178;2023-06-22T07:37:30;98985.95;;;26.68;76.82
41102;BME280;26845;50.190;19.178;2023-06-22T07:39:56;98982.85;;;26.78;75.99
41102;BME280;26845;50.190;19.178;2023-06-22T07:42:26;98987.87;;;26.73;75.37
41102;BME280;26845;50.190;19.178;2023-06-22T07:44:51;99000.90;;;26.63;75.26
41102;BME280;26845;50.190;19.178;2023-06-22T07:47:18;98994.08;;;26.69;75.44
41102;BME280;26845;50.190;19.178;2023-06-22T07:49:44;98997.45;;;26.76;75.25
41102;BME280;26845;50.190;19.178;2023-06-22T07:52:10;98995.70;;;26.80;75.09
41102;BME280;26845;50.190;19.178;2023-06-22T07:54:37;98996.05;;;26.86;74.60
41102;BME280;26845;50.190;19.178;2023-06-22T07:57:03;98992.33;;;26.92;74.85
41102;BME280;26845;50.190;19.178;2023-06-22T07:59:30;98988.73;;;27.00;74.62
41102;BME280;26845;50.190;19.178;2023-06-22T08:01:56;98989.84;;;27.10;73.19
41102;BME280;26845;50.190;19.178;2023-06-22T08:04:22;99001.05;;;26.99;72.93
41102;BME280;26845;50.190;19.178;2023-06-22T08:06:48;99001.59;;;27.02;72.97
41102;BME280;26845;50.190;19.178;2023-06-22T08:09:15;99002.10;;;27.17;72.96
41102;BME280;26845;50.190;19.178;2023-06-22T08:11:41;98994.98;;;27.41;73.12
41102;BME280;26845;50.190;19.178;2023-06-22T08:14:07;98994.45;;;27.70;71.95
41102;BME280;26845;50.190;19.178;2023-06-22T08:16:33;98996.39;;;27.92;72.16
41102;BME280;26845;50.190;19.178;2023-06-22T08:19:05;99000.77;;;28.15;71.73
41102;BME280;26845;50.190;19.178;2023-06-22T08:21:31;99000.51;;;28.33;70.89
41102;BME280;26845;50.190;19.178;2023-06-22T08:23:57;99000.67;;;28.59;70.83
41102;BME280;26845;50.190;19.178;2023-06-22T08:26:23;99008.02;;;28.84;69.76
41102;BME280;26845;50.190;19.178;2023-06-22T08:28:49;99010.08;;;28.97;69.41
41102;BME280;26845;50.190;19.178;2023-06-22T08:31:16;99012.13;;;29.11;69.01
41102;BME280;26845;50.190;19.178;2023-06-22T08:33:42;99011.80;;;29.32;68.90
41102;BME280;26845;50.190;19.178;2023-06-22T08:36:10;99013.95;;;29.51;67.20
41102;BME280;26845;50.190;19.178;2023-06-22T08:38:38;99016.82;;;29.39;66.71
41102;BME280;26845;50.190;19.178;2023-06-22T08:41:04;99020.42;;;29.30;65.91
41102;BME280;26845;50.190;19.178;2023-06-22T08:43:30;99018.23;;;29.07;66.36
41102;BME280;26845;50.190;19.178;2023-06-22T08:45:57;99014.25;;;29.10;66.66
41102;BME280;26845;50.190;19.178;2023-06-22T08:48:23;99016.13;;;28.92;63.33
41102;BME280;26845;50.190;19.178;2023-06-22T08:50:49;99017.66;;;28.43;64.94
41102;BME280;26845;50.190;19.178;2023-06-22T08:53:15;99020.31;;;28.24;64.77
41102;BME280;26845;50.190;19.178;2023-06-22T08:55:42;99026.14;;;28.17;65.51
41102;BME280;26845;50.190;19.178;2023-06-22T08:58:09;99028.89;;;28.35;64.89
41102;BME280;26845;50.190;19.178;2023-06-22T09:00:35;99028.70;;;28.32;64.00
41102;BME280;26845;50.190;19.178;2023-06-22T09:03:21;99027.90;;;28.41;64.96
41102;BME280;26845;50.190;19.178;2023-06-22T09:06:06;99029.51;;;28.69;64.33
41102;BME280;26845;50.190;19.178;2023-06-22T09:08:59;99027.83;;;29.01;64.35
41102;BME280;26845;50.190;19.178;2023-06-22T09:11:25;99027.86;;;29.34;64.17
41102;BME280;26845;50.190;19.178;2023-06-22T09:13:52;99026.62;;;29.51;63.44
41102;BME280;26845;50.190;19.178;2023-06-22T09:16:19;99028.27;;;29.51;62.79
41102;BME280;26845;50.190;19.178;2023-06-22T09:18:48;99026.36;;;29.61;62.56
41102;BME280;26845;50.190;19.178;2023-06-22T09:21:13;99026.33;;;29.82;61.48
41102;BME280;26845;50.190;19.178;2023-06-22T09:23:40;99025.75;;;29.98;61.33
41102;BME280;26845;50.190;19.178;2023-06-22T09:26:06;99026.31;;;29.98;60.87
41102;BME280;26845;50.190;19.178;2023-06-22T09:28:32;99022.20;;;29.84;60.42
41102;BME280;26845;50.190;19.178;2023-06-22T09:30:59;99019.87;;;29.86;60.87
41102;BME280;26845;50.190;19.178;2023-06-22T09:33:25;99017.02;;;30.00;59.38
41102;BME280;26845;50.190;19.178;2023-06-22T09:35:51;99006.42;;;30.06;59.88
41102;BME280;26845;50.190;19.178;2023-06-22T09:38:17;99004.89;;;30.26;59.75
41102;BME280;26845;50.190;19.178;2023-06-22T09:40:44;99003.02;;;30.50;59.50
41102;BME280;26845;50.190;19.178;2023-06-22T09:43:10;99006.00;;;30.78;59.01
41102;BME280;26845;50.190;19.178;2023-06-22T09:45:37;98999.45;;;30.71;55.40
41102;BME280;26845;50.190;19.178;2023-06-22T09:48:03;99000.67;;;30.52;56.59
41102;BME280;26845;50.190;19.178;2023-06-22T09:50:29;98999.34;;;30.66;57.04
41102;BME280;26845;50.190;19.178;2023-06-22T09:52:55;98992.85;;;30.90;57.13
41102;BME280;26845;50.190;19.178;2023-06-22T09:55:22;98992.36;;;31.11;56.63
41102;BME280;26845;50.190;19.178;2023-06-22T09:57:48;98993.82;;;31.11;54.60
41102;BME280;26845;50.190;19.178;2023-06-22T10:00:15;98988.45;;;30.94;55.30
41102;BME280;26845;50.190;19.178;2023-06-22T10:02:42;98985.13;;;31.08;55.08
41102;BME280;26845;50.190;19.178;2023-06-22T10:05:08;98989.93;;;31.25;54.60
41102;BME280;26845;50.190;19.178;2023-06-22T10:07:36;98982.02;;;31.41;54.97
41102;BME280;26845;50.190;19.178;2023-06-22T10:10:08;98980.53;;;31.64;54.31
41102;BME280;26845;50.190;19.178;2023-06-22T10:12:34;98976.30;;;31.71;51.98
41102;BME280;26845;50.190;19.178;2023-06-22T10:15:00;98978.95;;;31.27;50.36
41102;BME280;26845;50.190;19.178;2023-06-22T10:17:26;98982.00;;;31.18;53.30
41102;BME280;26845;50.190;19.178;2023-06-22T10:19:53;98975.64;;;31.51;53.49
41102;BME280;26845;50.190;19.178;2023-06-22T10:22:19;98977.77;;;31.87;52.97
41102;BME280;26845;50.190;19.178;2023-06-22T10:24:45;98971.17;;;32.10;51.97
41102;BME280;26845;50.190;19.178;2023-06-22T10:27:11;98963.96;;;32.22;51.61
41102;BME280;26845;50.190;19.178;2023-06-22T10:29:37;98965.05;;;32.22;50.92
41102;BME280;26845;50.190;19.178;2023-06-22T10:32:04;98964.27;;;32.13;49.96
41102;BME280;26845;50.190;19.178;2023-06-22T10:34:30;98965.08;;;32.16;50.47
41102;BME280;26845;50.190;19.178;2023-06-22T10:59:15;98947.13;;;32.67;48.06
41102;BME280;26845;50.190;19.178;2023-06-22T11:01:49;98945.08;;;32.85;48.13
41102;BME280;26845;50.190;19.178;2023-06-22T11:04:15;98941.92;;;32.95;47.38
41102;BME280;26845;50.190;19.178;2023-06-22T11:06:43;98942.20;;;32.97;46.87
41102;BME280;26845;50.190;19.178;2023-06-22T11:09:09;98942.90;;;32.96;47.06
41102;BME280;26845;50.190;19.178;2023-06-22T11:11:35;98941.34;;;33.08;47.29
41102;BME280;26845;50.190;19.178;2023-06-22T11:14:01;98936.79;;;33.22;47.59
41102;BME280;26845;50.190;19.178;2023-06-22T11:16:27;98931.67;;;33.42;47.16
41102;BME280;26845;50.190;19.178;2023-06-22T11:18:53;98933.80;;;33.60;46.61
41102;BME280;26845;50.190;19.178;2023-06-22T11:21:20;98932.13;;;33.69;45.43
41102;BME280;26845;50.190;19.178;2023-06-22T11:23:46;98935.80;;;33.46;45.02
41102;BME280;26845;50.190;19.178;2023-06-22T11:26:12;98934.60;;;33.14;43.39
41102;BME280;26845;50.190;19.178;2023-06-22T11:28:38;98934.24;;;32.80;43.37
41102;BME280;26845;50.190;19.178;2023-06-22T11:31:05;98932.52;;;32.71;44.16
41102;BME280;26845;50.190;19.178;2023-06-22T11:33:35;98936.84;;;32.79;43.87
41102;BME280;26845;50.190;19.178;2023-06-22T11:36:06;98933.16;;;32.74;44.00
41102;BME280;26845;50.190;19.178;2023-06-22T11:38:40;98933.95;;;32.68;41.89
41102;BME280;26845;50.190;19.178;2023-06-22T11:41:44;98934.48;;;32.17;42.13
41102;BME280;26845;50.190;19.178;2023-06-22T11:44:21;98931.77;;;31.99;43.52
41102;BME280;26845;50.190;19.178;2023-06-22T11:46:55;98922.85;;;32.14;44.33
41102;BME280;26845;50.190;19.178;2023-06-22T11:49:28;98922.91;;;32.32;44.34
41102;BME280;26845;50.190;19.178;2023-06-22T11:52:02;98919.48;;;32.51;43.73
41102;BME280;26845;50.190;19.178;2023-06-22T11:54:36;98919.46;;;32.41;42.29
41102;BME280;26845;50.190;19.178;2023-06-22T11:57:09;98917.93;;;32.46;41.82
41102;BME280;26845;50.190;19.178;2023-06-22T12:00:24;98917.95;;;32.13;40.95
41102;BME280;26845;50.190;19.178;2023-06-22T12:03:04;98918.33;;;31.90;41.66
41102;BME280;26845;50.190;19.178;2023-06-22T12:05:44;98914.42;;;31.78;40.93
41102;BME280;26845;50.190;19.178;2023-06-22T12:08:30;98911.11;;;31.64;40.42
41102;BME280;26845;50.190;19.178;2023-06-22T12:11:29;98906.45;;;31.55;40.52
41102;BME280;26845;50.190;19.178;2023-06-22T12:14:09;98905.95;;;31.36;41.35
41102;BME280;26845;50.190;19.178;2023-06-22T12:17:07;98897.41;;;31.27;42.28
41102;BME280;26845;50.190;19.178;2023-06-22T12:19:48;98896.09;;;31.45;42.90
41102;BME280;26845;50.190;19.178;2023-06-22T12:22:28;98895.45;;;31.60;43.02
41102;BME280;26845;50.190;19.178;2023-06-22T12:25:08;98890.42;;;31.92;43.27
41102;BME280;26845;50.190;19.178;2023-06-22T12:28:06;98881.76;;;32.44;43.48
41102;BME280;26845;50.190;19.178;2023-06-22T12:30:47;98881.46;;;32.83;43.66
41102;BME280;26845;50.190;19.178;2023-06-22T12:33:27;98878.71;;;33.18;43.37
41102;BME280;26845;50.190;19.178;2023-06-22T12:36:26;98877.06;;;33.30;42.56
41102;BME280;26845;50.190;19.178;2023-06-22T12:39:17;98874.39;;;33.36;41.77
41102;BME280;26845;50.190;19.178;2023-06-22T12:42:01;98873.15;;;33.19;41.60
41102;BME280;26845;50.190;19.178;2023-06-22T12:44:41;98868.71;;;32.99;41.38
41102;BME280;26845;50.190;19.178;2023-06-22T12:47:38;98864.23;;;33.02;42.00
41102;BME280;26845;50.190;19.178;2023-06-22T12:50:15;98856.33;;;33.15;42.25
41102;BME280;26845;50.190;19.178;2023-06-22T12:52:49;98855.20;;;33.17;41.67
41102;BME280;26845;50.190;19.178;2023-06-22T12:55:22;98855.33;;;33.18;41.32
41102;BME280;26845;50.190;19.178;2023-06-22T12:57:56;98846.83;;;33.01;41.18
41102;BME280;26845;50.190;19.178;2023-06-22T13:00:30;98851.04;;;33.12;41.87
41102;BME280;26845;50.190;19.178;2023-06-22T13:03:03;98850.11;;;33.34;41.38
41102;BME280;26845;50.190;19.178;2023-06-22T13:06:22;98841.99;;;33.46;41.15
41102;BME280;26845;50.190;19.178;2023-06-22T13:08:56;98841.61;;;33.62;41.01
41102;BME280;26845;50.190;19.178;2023-06-22T13:11:29;98840.68;;;33.73;41.23
41102;BME280;26845;50.190;19.178;2023-06-22T13:14:09;98834.48;;;33.82;40.21
41102;BME280;26845;50.190;19.178;2023-06-22T13:16:42;98838.30;;;33.67;39.04
41102;BME280;26845;50.190;19.178;2023-06-22T13:19:16;98839.73;;;33.36;38.46
41102;BME280;26845;50.190;19.178;2023-06-22T13:21:50;98837.66;;;33.39;39.50
41102;BME280;26845;50.190;19.178;2023-06-22T13:24:23;98839.98;;;33.68;38.90
41102;BME280;26845;50.190;19.178;2023-06-22T13:26:57;98839.48;;;33.40;36.89
41102;BME280;26845;50.190;19.178;2023-06-22T13:29:31;98836.42;;;32.91;36.51
41102;BME280;26845;50.190;19.178;2023-06-22T13:32:05;98833.39;;;32.53;37.42
41102;BME280;26845;50.190;19.178;2023-06-22T13:34:39;98829.34;;;32.36;37.42
41102;BME280;26845;50.190;19.178;2023-06-22T13:37:12;98824.36;;;32.18;37.61
41102;BME280;26845;50.190;19.178;2023-06-22T13:39:46;98824.10;;;32.43;39.25
41102;BME280;26845;50.190;19.178;2023-06-22T13:42:20;98816.56;;;32.88;39.42
41102;BME280;26845;50.190;19.178;2023-06-22T13:44:53;98818.80;;;33.29;39.75
41102;BME280;26845;50.190;19.178;2023-06-22T13:47:27;98820.73;;;33.66;39.59
41102;BME280;26845;50.190;19.178;2023-06-22T13:50:01;98822.13;;;33.92;39.57
41102;BME280;26845;50.190;19.178;2023-06-22T13:52:34;98819.54;;;34.09;38.77
41102;BME280;26845;50.190;19.178;2023-06-22T13:55:45;98820.54;;;34.26;39.53
41102;BME280;26845;50.190;19.178;2023-06-22T13:58:21;98819.35;;;34.47;39.00
41102;BME280;26845;50.190;19.178;2023-06-22T14:01:02;98818.45;;;34.67;39.09
41102;BME280;26845;50.190;19.178;2023-06-22T14:03:51;98817.58;;;34.73;38.43
41102;BME280;26845;50.190;19.178;2023-06-22T14:06:42;98817.16;;;34.75;38.73
41102;BME280;26845;50.190;19.178;2023-06-22T14:09:40;98804.74;;;34.85;38.44
41102;BME280;26845;50.190;19.178;2023-06-22T14:12:46;98798.48;;;34.90;38.52
41102;BME280;26845;50.190;19.178;2023-06-22T14:15:23;98797.59;;;34.88;37.85